createdAt,value
2023-05-06T00:01:17.142Z,1.88
2023-05-06T00:03:43.847Z,2.00
2023-05-06T00:06:10.529Z,2.38
2023-05-06T00:08:36.925Z,1.92
2023-05-06T00:11:04.676Z,2.42
2023-05-06T00:13:31.114Z,2.13
2023-05-06T00:15:57.536Z,2.30
2023-05-06T00:18:24.269Z,2.28
2023-05-06T00:20:50.665Z,2.20
2023-05-06T00:23:17.083Z,2.10
2023-05-06T00:25:43.499Z,2.10
2023-05-06T00:28:10.049Z,2.28
2023-05-06T00:30:36.385Z,2.50
2023-05-06T00:33:02.946Z,2.50
2023-05-06T00:35:30.228Z,2.45
2023-05-06T00:37:58.568Z,2.30
2023-05-06T00:40:24.991Z,2.40
2023-05-06T00:42:51.396Z,2.50
2023-05-06T00:45:18.023Z,2.40
2023-05-06T00:47:44.818Z,2.42
2023-05-06T00:50:11.388Z,2.20
2023-05-06T00:52:37.824Z,2.30
2023-05-06T00:55:04.362Z,2.15
2023-05-06T00:57:30.788Z,2.58
2023-05-06T00:59:57.273Z,2.67
2023-05-06T01:02:28.476Z,2.42
2023-05-06T01:05:04.123Z,2.28
2023-05-06T01:07:44.911Z,1.88
2023-05-06T01:10:24.542Z,2.42
2023-05-06T01:13:01.052Z,2.17
2023-05-06T01:15:39.373Z,2.50
2023-05-06T01:18:10.123Z,2.40
2023-05-06T01:20:38.224Z,2.15
2023-05-06T01:23:14.541Z,2.40
2023-05-06T01:25:42.663Z,2.10
2023-05-06T01:28:12.784Z,2.72
2023-05-06T01:30:55.352Z,2.10
2023-05-06T01:33:35.534Z,1.80
2023-05-06T01:36:32.677Z,2.10
2023-05-06T01:39:21.087Z,2.42
2023-05-06T01:41:48.998Z,2.22
2023-05-06T01:44:16.797Z,2.00
2023-05-06T01:46:44.686Z,1.83
2023-05-06T01:49:11.571Z,1.80
2023-05-06T01:51:38.400Z,2.08
2023-05-06T01:54:05.075Z,2.10
2023-05-06T01:56:31.669Z,2.25
2023-05-06T01:58:59.733Z,2.00
2023-05-06T02:01:26.367Z,2.50
2023-05-06T02:03:53.110Z,2.53
2023-05-06T02:06:19.689Z,2.42
2023-05-06T02:08:46.528Z,2.20
2023-05-06T02:11:12.939Z,2.35
2023-05-06T02:13:39.285Z,2.40
2023-05-06T02:16:05.904Z,2.20
2023-05-06T02:18:32.323Z,2.35
2023-05-06T02:20:58.747Z,2.58
2023-05-06T02:23:25.171Z,2.33
2023-05-06T02:25:51.789Z,2.30
2023-05-06T02:28:18.172Z,2.40
2023-05-06T02:30:44.624Z,2.40
2023-05-06T02:33:11.046Z,2.10
2023-05-06T02:35:37.419Z,2.20
2023-05-06T02:38:04.319Z,2.25
2023-05-06T02:40:30.653Z,2.17
2023-05-06T02:42:57.068Z,2.40
2023-05-06T02:45:23.437Z,2.25
2023-05-06T02:47:49.890Z,2.10
2023-05-06T02:50:16.836Z,2.40
2023-05-06T02:52:43.156Z,2.33
2023-05-06T02:55:09.799Z,2.50
2023-05-06T02:57:36.304Z,2.13
2023-05-06T03:00:02.694Z,2.25
2023-05-06T03:02:29.109Z,2.35
2023-05-06T03:04:55.661Z,2.92
2023-05-06T03:07:21.997Z,2.72
2023-05-06T03:09:48.363Z,2.40
2023-05-06T03:12:14.943Z,2.97
2023-05-06T03:14:41.317Z,2.05
2023-05-06T03:17:07.890Z,2.70
2023-05-06T03:19:34.317Z,2.42
2023-05-06T03:22:00.688Z,2.78
2023-05-06T03:24:27.062Z,2.35
2023-05-06T03:26:53.491Z,2.60
2023-05-06T03:29:19.864Z,1.90
2023-05-06T03:31:49.814Z,1.60
2023-05-06T03:34:16.168Z,2.35
2023-05-06T03:36:42.560Z,2.20
2023-05-06T03:39:08.913Z,1.83
2023-05-06T03:41:35.305Z,2.20
2023-05-06T03:44:01.673Z,2.20
2023-05-06T03:46:28.068Z,2.72
2023-05-06T03:48:54.551Z,2.38
2023-05-06T03:51:20.979Z,2.60
2023-05-06T03:53:47.737Z,2.15
2023-05-06T03:56:14.225Z,2.47
2023-05-06T03:58:40.582Z,2.20
2023-05-06T04:01:06.967Z,2.13
2023-05-06T04:03:33.431Z,1.70
2023-05-06T04:05:59.828Z,2.00
2023-05-06T04:08:26.201Z,1.80
2023-05-06T04:10:52.977Z,2.28
2023-05-06T04:13:19.588Z,1.60
2023-05-06T04:15:45.977Z,2.33
2023-05-06T04:18:18.974Z,1.77
2023-05-06T04:20:48.428Z,2.17
2023-05-06T04:23:15.270Z,1.92
2023-05-06T04:25:42.693Z,2.53
2023-05-06T04:28:11.147Z,1.80
2023-05-06T04:30:37.815Z,2.13
2023-05-06T04:33:04.272Z,2.33
2023-05-06T04:35:30.837Z,2.28
2023-05-06T04:37:57.238Z,1.83
2023-05-06T04:40:25.836Z,2.20
2023-05-06T04:42:52.372Z,2.38
2023-05-06T04:45:18.803Z,2.42
2023-05-06T04:47:45.533Z,2.50
2023-05-06T04:50:12.036Z,2.42
2023-05-06T04:52:38.451Z,2.30
2023-05-06T04:55:05.155Z,2.05
2023-05-06T04:57:31.805Z,2.08
2023-05-06T04:59:58.272Z,2.45
2023-05-06T05:02:24.777Z,1.90
2023-05-06T05:04:51.177Z,2.42
2023-05-06T05:07:17.547Z,2.25
2023-05-06T05:09:43.895Z,2.22
2023-05-06T05:12:10.329Z,2.20
2023-05-06T05:14:39.532Z,2.42
2023-05-06T05:17:05.942Z,2.00
2023-05-06T05:19:32.313Z,1.98
2023-05-06T05:21:58.695Z,2.00
2023-05-06T05:24:25.160Z,1.73
2023-05-06T05:26:51.555Z,2.25
2023-05-06T05:29:20.620Z,2.17
2023-05-06T05:31:47.074Z,1.95
2023-05-06T05:34:13.548Z,2.55
2023-05-06T05:36:39.896Z,2.30
2023-05-06T05:39:09.257Z,2.28
2023-05-06T05:41:35.629Z,2.42
2023-05-06T05:44:04.817Z,2.45
2023-05-06T05:46:31.421Z,3.45
2023-05-06T05:48:57.923Z,3.17
2023-05-06T05:51:24.366Z,2.80
2023-05-06T05:53:51.966Z,3.30
2023-05-06T05:56:18.380Z,3.35
2023-05-06T05:58:44.796Z,2.78
2023-05-06T06:01:11.476Z,3.47
2023-05-06T06:03:38.009Z,2.97
2023-05-06T06:06:04.640Z,3.03
2023-05-06T06:08:32.311Z,3.20
2023-05-06T06:10:58.969Z,3.20
2023-05-06T06:13:27.915Z,2.78
2023-05-06T06:15:56.350Z,3.05
2023-05-06T06:18:22.940Z,3.40
2023-05-06T06:20:52.375Z,3.10
2023-05-06T06:23:19.603Z,3.33
2023-05-06T06:25:48.048Z,4.20
2023-05-06T06:28:14.518Z,4.18
2023-05-06T06:30:41.157Z,4.13
2023-05-06T06:33:07.749Z,4.05
2023-05-06T06:35:34.835Z,4.22
2023-05-06T06:38:03.913Z,4.32
2023-05-06T06:40:30.375Z,3.90
2023-05-06T06:42:56.792Z,3.65
2023-05-06T06:45:23.574Z,3.75
2023-05-06T06:47:50.033Z,3.50
2023-05-06T06:50:16.487Z,3.42
2023-05-06T06:52:43.081Z,3.20
2023-05-06T06:55:09.858Z,3.20
2023-05-06T06:57:37.931Z,3.50
2023-05-06T07:00:05.074Z,2.80
2023-05-06T07:02:31.534Z,3.40
2023-05-06T07:04:57.890Z,3.00
2023-05-06T07:07:24.341Z,3.33
2023-05-06T07:09:50.763Z,2.78
2023-05-06T07:12:17.137Z,2.35
2023-05-06T07:14:43.533Z,2.42
2023-05-06T07:17:09.944Z,2.50
2023-05-06T07:19:36.397Z,2.65
2023-05-06T07:22:02.926Z,2.40
2023-05-06T07:24:29.512Z,2.15
2023-05-06T07:26:55.960Z,1.63
2023-05-06T07:29:22.370Z,2.58
2023-05-06T07:31:48.703Z,2.00
2023-05-06T07:34:15.104Z,1.83
2023-05-06T07:36:43.251Z,2.03
2023-05-06T07:39:10.708Z,1.98
2023-05-06T07:41:37.105Z,1.67
2023-05-06T07:44:03.873Z,1.70
2023-05-06T07:46:30.409Z,1.35
2023-05-06T07:48:56.891Z,1.73
2023-05-06T07:51:23.259Z,1.42
2023-05-06T07:53:49.655Z,1.60
2023-05-06T07:56:16.052Z,1.58
2023-05-06T07:58:42.421Z,1.98
2023-05-06T08:01:08.770Z,1.70
2023-05-06T08:03:35.641Z,1.52
2023-05-06T08:06:02.304Z,1.67
2023-05-06T08:08:28.727Z,1.60
2023-05-06T08:10:55.915Z,1.60
2023-05-06T08:13:22.287Z,1.52
2023-05-06T08:15:48.940Z,1.20
2023-05-06T08:18:22.430Z,1.77
2023-05-06T08:23:15.987Z,1.40
2023-05-06T08:25:42.776Z,1.52
2023-05-06T08:28:09.149Z,1.40
2023-05-06T08:30:35.859Z,1.20
2023-05-06T08:33:02.654Z,1.65
2023-05-06T08:35:29.186Z,1.55
2023-05-06T08:37:55.636Z,1.40
2023-05-06T08:40:23.283Z,1.85
2023-05-06T08:42:50.457Z,1.52
2023-05-06T08:45:17.786Z,1.50
2023-05-06T08:47:44.326Z,1.52
2023-05-06T08:50:12.179Z,1.90
2023-05-06T08:52:39.346Z,1.48
2023-05-06T08:55:06.825Z,1.45
2023-05-06T08:57:33.742Z,1.60
2023-05-06T09:00:00.339Z,1.40
2023-05-06T09:02:27.314Z,1.60
2023-05-06T09:04:55.272Z,1.80
2023-05-06T09:07:22.368Z,1.73
2023-05-06T09:09:49.069Z,1.40
2023-05-06T09:12:15.562Z,1.58
2023-05-06T09:14:42.521Z,1.55
2023-05-06T09:17:24.427Z,1.65
2023-05-06T09:19:52.388Z,1.50
2023-05-06T09:22:21.849Z,1.45
2023-05-06T09:24:56.460Z,1.42
2023-05-06T09:27:31.058Z,1.33
2023-05-06T09:30:11.542Z,1.40
2023-05-06T09:32:40.195Z,1.17
2023-05-06T09:35:08.384Z,1.58
2023-05-06T09:37:35.057Z,1.20
2023-05-06T09:40:01.665Z,1.15
2023-05-06T09:42:29.827Z,1.20
2023-05-06T09:45:07.917Z,1.00
2023-05-06T09:47:35.387Z,1.20
2023-05-06T09:50:03.005Z,1.20
2023-05-06T09:52:30.191Z,1.42
2023-05-06T09:54:57.500Z,1.15
2023-05-06T09:57:24.427Z,0.93
2023-05-06T09:59:53.932Z,1.20
2023-05-06T10:02:22.762Z,1.13
2023-05-06T10:04:49.863Z,1.10
2023-05-06T10:07:22.414Z,0.90
2023-05-06T10:09:49.170Z,1.08
2023-05-06T10:12:16.329Z,1.20
2023-05-06T10:14:42.711Z,1.30
2023-05-06T10:17:10.457Z,1.48
2023-05-06T10:19:40.039Z,1.15
2023-05-06T10:22:19.933Z,1.30
2023-05-06T10:24:54.878Z,1.10
2023-05-06T10:27:23.651Z,1.10
2023-05-06T10:29:53.073Z,1.30
2023-05-06T10:32:20.928Z,1.20
2023-05-06T10:34:53.994Z,1.40
2023-05-06T10:37:25.677Z,0.90
2023-05-06T10:39:54.032Z,0.90
2023-05-06T10:42:20.574Z,1.40
2023-05-06T10:45:04.330Z,0.93
2023-05-06T10:48:02.641Z,0.90
2023-05-06T10:50:29.048Z,1.10
2023-05-06T10:52:57.092Z,0.88
2023-05-06T10:55:34.412Z,1.20
2023-05-06T10:58:06.696Z,1.98
2023-05-06T11:00:34.369Z,3.72
2023-05-06T11:03:02.224Z,2.85
2023-05-06T11:05:28.886Z,1.40
2023-05-06T11:08:09.036Z,1.20
2023-05-06T11:10:36.249Z,2.20
2023-05-06T11:13:22.772Z,1.27
2023-05-06T11:15:52.875Z,2.20
2023-05-06T11:18:25.070Z,1.20
2023-05-06T11:20:51.965Z,1.40
2023-05-06T11:23:21.059Z,1.08
2023-05-06T11:25:47.789Z,0.95
2023-05-06T11:28:14.987Z,1.13
2023-05-06T11:30:42.973Z,2.13
2023-05-06T11:33:19.102Z,1.10
2023-05-06T11:35:46.072Z,1.88
2023-05-06T11:38:12.547Z,1.10
2023-05-06T11:40:41.359Z,1.50
2023-05-06T11:43:14.662Z,1.05
2023-05-06T11:45:48.135Z,1.35
2023-05-06T11:48:15.319Z,1.70
2023-05-06T11:50:47.030Z,1.25
2023-05-06T11:53:16.444Z,1.25
2023-05-06T11:55:43.762Z,1.00
2023-05-06T11:58:14.335Z,1.00
2023-05-06T12:00:51.933Z,1.38
2023-05-06T12:03:19.954Z,1.40
2023-05-06T12:05:48.172Z,0.80
2023-05-06T12:08:28.050Z,1.10
2023-05-06T12:10:56.440Z,0.88
2023-05-06T12:13:23.002Z,1.00
2023-05-06T12:15:52.598Z,1.60
2023-05-06T12:18:19.093Z,1.00
2023-05-06T12:20:45.606Z,1.00
2023-05-06T12:23:13.490Z,1.20
2023-05-06T12:25:40.660Z,3.35
2023-05-06T12:28:27.239Z,1.60
2023-05-06T12:30:53.635Z,1.02
2023-05-06T12:33:20.010Z,0.80
2023-05-06T12:35:46.336Z,2.00
2023-05-06T12:38:13.452Z,2.65
2023-05-06T12:40:40.770Z,1.40
2023-05-06T12:43:07.253Z,1.15
2023-05-06T12:45:33.762Z,0.90
2023-05-06T12:48:02.234Z,1.10
2023-05-06T12:50:33.274Z,0.82
2023-05-06T12:52:59.994Z,1.02
2023-05-06T12:55:26.815Z,1.00
2023-05-06T12:57:53.446Z,1.20
2023-05-06T13:00:19.962Z,1.20
2023-05-06T13:02:46.905Z,1.10
2023-05-06T13:05:14.202Z,0.90
2023-05-06T13:07:43.794Z,1.20
2023-05-06T13:10:10.782Z,1.10
2023-05-06T13:12:37.492Z,0.80
2023-05-06T13:15:04.328Z,0.70
2023-05-06T13:17:30.717Z,0.80
2023-05-06T13:19:57.875Z,1.33
2023-05-06T13:22:24.483Z,1.00
2023-05-06T13:24:51.355Z,1.00
2023-05-06T13:27:17.963Z,0.80
2023-05-06T13:29:44.418Z,0.93
2023-05-06T13:32:10.752Z,1.17
2023-05-06T13:34:37.096Z,1.05
2023-05-06T13:37:03.482Z,0.70
2023-05-06T13:39:30.580Z,1.20
2023-05-06T13:41:56.894Z,0.95
2023-05-06T13:44:24.470Z,0.90
2023-05-06T13:46:51.149Z,1.40
2023-05-06T13:49:18.480Z,1.10
2023-05-06T13:51:44.872Z,1.00
2023-05-06T13:54:11.479Z,0.85
2023-05-06T13:56:37.975Z,0.90
2023-05-06T13:59:04.608Z,1.13
2023-05-06T14:01:31.011Z,0.82
2023-05-06T14:03:57.387Z,0.90
2023-05-06T14:06:23.809Z,1.25
2023-05-06T14:08:50.203Z,1.20
2023-05-06T14:11:16.601Z,0.82
2023-05-06T14:13:42.956Z,0.80
2023-05-06T14:16:09.353Z,1.10
2023-05-06T14:18:35.863Z,0.82
2023-05-06T14:21:02.261Z,1.00
2023-05-06T14:23:28.615Z,1.30
2023-05-06T14:25:54.985Z,0.80
2023-05-06T14:28:21.795Z,0.98
2023-05-06T14:30:48.213Z,0.95
2023-05-06T14:33:14.518Z,1.00
2023-05-06T14:35:42.259Z,0.80
2023-05-06T14:38:09.401Z,1.08
2023-05-06T14:40:36.813Z,1.00
2023-05-06T14:43:03.313Z,1.00
2023-05-06T14:45:31.014Z,1.08
2023-05-06T14:47:57.559Z,1.13
2023-05-06T14:50:23.928Z,0.98
2023-05-06T14:52:50.277Z,1.05
2023-05-06T14:55:17.194Z,1.00
2023-05-06T14:57:43.546Z,0.80
2023-05-06T15:00:12.653Z,1.05
2023-05-06T15:02:40.702Z,1.00
2023-05-06T15:05:08.886Z,1.00
2023-05-06T15:07:35.729Z,0.90
2023-05-06T15:10:02.697Z,1.13
2023-05-06T15:12:29.126Z,1.05
2023-05-06T15:14:55.585Z,1.00
2023-05-06T15:17:21.904Z,1.08
2023-05-06T15:19:48.428Z,1.20
2023-05-06T15:22:14.823Z,1.08
2023-05-06T15:24:41.191Z,1.30
2023-05-06T15:27:07.576Z,1.15
2023-05-06T15:29:33.897Z,0.93
2023-05-06T15:32:00.661Z,1.00
2023-05-06T15:34:27.096Z,0.90
2023-05-06T15:36:53.924Z,1.50
2023-05-06T15:39:20.738Z,1.30
2023-05-06T15:41:47.997Z,0.90
2023-05-06T15:44:16.422Z,1.27
2023-05-06T15:46:43.147Z,1.15
2023-05-06T15:49:39.671Z,1.58
2023-05-06T15:51:59.059Z,1.33
2023-05-06T15:54:27.202Z,3.00
2023-05-06T15:56:53.609Z,1.83
2023-05-06T15:59:22.052Z,1.40
2023-05-06T16:02:25.543Z,1.52
2023-05-06T16:04:36.532Z,1.88
2023-05-06T16:07:02.992Z,1.40
2023-05-06T16:09:29.358Z,2.17
2023-05-06T16:11:55.870Z,5.38
2023-05-06T16:14:22.526Z,3.97
2023-05-06T16:16:48.903Z,1.42
2023-05-06T16:19:15.384Z,1.30
2023-05-06T16:21:41.704Z,1.63
2023-05-06T16:24:08.541Z,1.50
2023-05-06T16:26:35.431Z,1.60
2023-05-06T16:29:01.803Z,1.42
2023-05-06T16:31:28.295Z,1.70
2023-05-06T16:33:54.740Z,1.25
2023-05-06T16:36:21.159Z,1.63
2023-05-06T16:38:47.491Z,1.52
2023-05-06T16:41:14.117Z,1.38
2023-05-06T16:43:41.182Z,1.50
2023-05-06T16:46:07.574Z,1.40
2023-05-06T16:48:34.167Z,1.35
2023-05-06T16:51:01.156Z,1.65
2023-05-06T16:53:27.724Z,1.63
2023-05-06T16:55:54.214Z,2.00
2023-05-06T16:58:20.632Z,1.80
2023-05-06T17:00:47.023Z,1.60
2023-05-06T17:03:13.573Z,1.23
2023-05-06T17:05:40.186Z,1.45
2023-05-06T17:08:07.064Z,1.40
2023-05-06T17:10:33.640Z,1.30
2023-05-06T17:13:00.118Z,1.50
2023-05-06T17:15:26.705Z,1.33
2023-05-06T17:17:53.234Z,1.20
2023-05-06T17:20:19.924Z,1.40
2023-05-06T17:22:46.494Z,1.92
2023-05-06T17:25:13.322Z,1.55
2023-05-06T17:27:39.899Z,4.78
2023-05-06T17:30:09.726Z,8.00
2023-05-06T17:32:36.393Z,6.43
2023-05-06T17:35:02.985Z,5.43
2023-05-06T17:37:30.752Z,4.13
2023-05-06T17:39:57.168Z,4.65
2023-05-06T17:42:23.517Z,4.32
2023-05-06T17:44:49.887Z,3.60
2023-05-06T17:47:17.314Z,3.20
2023-05-06T17:49:43.675Z,2.83
2023-05-06T17:52:10.259Z,2.92
2023-05-06T17:54:38.132Z,2.30
2023-05-06T17:57:04.592Z,2.40
2023-05-06T17:59:31.151Z,2.00
2023-05-06T18:01:57.708Z,1.88
2023-05-06T18:04:24.246Z,2.10
2023-05-06T18:06:50.841Z,1.77
2023-05-06T18:09:17.214Z,2.95
2023-05-06T18:11:44.007Z,1.88
2023-05-06T18:14:11.015Z,1.90
2023-05-06T18:16:37.808Z,1.75
2023-05-06T18:19:05.230Z,1.58
2023-05-06T18:21:33.807Z,2.10
2023-05-06T18:24:10.148Z,1.90
2023-05-06T18:26:45.250Z,1.98
2023-05-06T18:29:12.740Z,2.00
2023-05-06T18:31:41.826Z,1.70
2023-05-06T18:34:08.237Z,1.80
2023-05-06T18:36:36.293Z,1.52
2023-05-06T18:39:05.697Z,1.65
2023-05-06T18:41:32.075Z,1.58
2023-05-06T18:43:58.518Z,1.80
2023-05-06T18:46:26.874Z,1.80
2023-05-06T18:48:53.613Z,1.60
2023-05-06T18:51:21.425Z,1.90
2023-05-06T18:53:47.883Z,2.05
2023-05-06T18:56:14.300Z,2.10
2023-05-06T18:58:41.002Z,1.70
2023-05-06T19:01:09.209Z,2.85
2023-05-06T19:03:35.866Z,2.53
2023-05-06T19:06:04.109Z,2.72
2023-05-06T19:08:31.217Z,2.40
2023-05-06T19:11:01.569Z,2.17
2023-05-06T19:13:28.447Z,1.92
2023-05-06T19:15:55.216Z,2.15
2023-05-06T19:18:21.637Z,1.80
2023-05-06T19:20:48.156Z,2.28
2023-05-06T19:23:14.586Z,1.75
2023-05-06T19:25:41.181Z,1.92
2023-05-06T19:28:07.831Z,1.70
2023-05-06T19:30:35.487Z,2.10
2023-05-06T19:33:02.487Z,2.17
2023-05-06T19:35:29.086Z,1.90
2023-05-06T19:37:56.086Z,2.10
2023-05-06T19:40:22.773Z,2.33
2023-05-06T19:42:49.192Z,2.33
2023-05-06T19:45:17.420Z,2.10
2023-05-06T19:47:45.697Z,4.38
2023-05-06T19:50:12.998Z,7.65
2023-05-06T19:52:39.952Z,4.70
2023-05-06T19:55:07.021Z,3.65
2023-05-06T19:57:33.923Z,2.50
2023-05-06T20:00:04.894Z,2.45
2023-05-06T20:02:31.565Z,2.03
2023-05-06T20:04:58.236Z,2.20
2023-05-06T20:07:24.606Z,1.70
2023-05-06T20:09:55.106Z,1.92
2023-05-06T20:12:26.343Z,2.13
2023-05-06T20:14:53.554Z,2.03
2023-05-06T20:17:20.089Z,2.00
2023-05-06T20:19:46.727Z,1.80
2023-05-06T20:22:13.239Z,2.28
2023-05-06T20:24:43.317Z,2.10
2023-05-06T20:27:09.883Z,2.05
2023-05-06T20:29:36.390Z,1.80
2023-05-06T20:32:02.955Z,2.42
2023-05-06T20:34:29.814Z,1.98
2023-05-06T20:36:56.554Z,2.47
2023-05-06T20:39:23.660Z,2.05
2023-05-06T20:41:50.208Z,1.80
2023-05-06T20:44:16.709Z,1.80
2023-05-06T20:46:44.006Z,1.50
2023-05-06T20:49:10.474Z,1.75
2023-05-06T20:51:36.837Z,1.65
2023-05-06T20:54:03.876Z,1.27
2023-05-06T20:56:30.204Z,1.30
2023-05-06T20:58:58.170Z,1.40
2023-05-06T21:01:25.700Z,1.80
2023-05-06T21:03:52.235Z,1.70
2023-05-06T21:06:19.301Z,1.75
2023-05-06T21:08:46.361Z,1.92
2023-05-06T21:11:13.405Z,1.42
2023-05-06T21:13:42.850Z,1.50
2023-05-06T21:16:09.255Z,1.70
2023-05-06T21:18:35.883Z,1.55
2023-05-06T21:21:02.325Z,1.63
2023-05-06T21:23:31.416Z,1.70
2023-05-06T21:25:59.210Z,2.72
2023-05-06T21:28:25.575Z,3.88
2023-05-06T21:30:52.074Z,1.98
2023-05-06T21:33:18.474Z,1.60
2023-05-06T21:35:44.864Z,2.30
2023-05-06T21:38:11.294Z,2.42
2023-05-06T21:40:37.722Z,1.90
2023-05-06T21:43:04.219Z,2.70
2023-05-06T21:45:30.824Z,2.35
2023-05-06T21:47:57.227Z,2.05
2023-05-06T21:50:23.732Z,1.98
2023-05-06T21:52:50.115Z,1.60
2023-05-06T21:55:16.601Z,1.67
2023-05-06T21:57:44.505Z,1.67
2023-05-06T22:00:12.525Z,1.55
2023-05-06T22:02:39.921Z,1.20
2023-05-06T22:05:08.133Z,1.20
2023-05-06T22:07:35.661Z,1.40
2023-05-06T22:10:04.684Z,1.33
2023-05-06T22:12:31.645Z,0.95
2023-05-06T22:14:58.157Z,1.10
2023-05-06T22:17:24.516Z,1.13
2023-05-06T22:19:52.188Z,1.10
2023-05-06T22:22:19.059Z,1.52
2023-05-06T22:24:45.735Z,1.27
2023-05-06T22:27:12.126Z,1.30
2023-05-06T22:29:38.599Z,1.20
2023-05-06T22:32:05.851Z,1.20
2023-05-06T22:34:32.284Z,1.35
2023-05-06T22:37:00.449Z,1.23
2023-05-06T22:39:27.431Z,1.20
2023-05-06T22:41:53.821Z,1.20
2023-05-06T22:44:20.916Z,0.95
2023-05-06T22:46:47.313Z,1.20
2023-05-06T22:49:15.832Z,1.10
2023-05-06T22:51:42.266Z,1.00
2023-05-06T22:54:08.642Z,1.20
2023-05-06T22:56:35.032Z,1.40
2023-05-06T22:59:01.536Z,1.58
2023-05-06T23:01:32.015Z,0.93
2023-05-06T23:04:01.176Z,1.60
2023-05-06T23:06:27.851Z,1.33
2023-05-06T23:08:56.230Z,1.20
2023-05-06T23:11:22.704Z,1.58
2023-05-06T23:13:51.621Z,1.20
2023-05-06T23:16:18.346Z,1.05
2023-05-06T23:18:45.721Z,1.10
2023-05-06T23:21:12.521Z,1.35
2023-05-06T23:23:40.178Z,1.45
2023-05-06T23:26:06.663Z,1.52
2023-05-06T23:28:33.235Z,1.30
2023-05-06T23:31:00.279Z,1.52
2023-05-06T23:33:26.824Z,1.13
2023-05-06T23:35:53.207Z,1.60
2023-05-06T23:38:19.629Z,1.83
2023-05-06T23:40:46.055Z,1.50
2023-05-06T23:43:12.411Z,1.65
2023-05-06T23:45:38.790Z,1.60
2023-05-06T23:48:05.838Z,1.60
2023-05-06T23:50:32.275Z,1.17
2023-05-06T23:52:58.634Z,1.55
2023-05-06T23:55:26.350Z,1.70
2023-05-06T23:57:52.741Z,1.70
